WetterOnline ( https://www.wetteronline.de )

Wetter aktuell Purfing

Aktuelles Wetter: München/Stadt (535m)

6-stündlich | Neueste Meldungen
Ortszeit Temperatur Wetter
So, 26.01. 1:00 2.3° C bedeckt
Sa, 25.01. 19:00 3.5° C bedeckt
Sa, 25.01. 13:00 7.3° C wolkig
Sa, 25.01. 7:00 -0.8° C wolkig
Sa, 25.01. 1:00 -0.0° C wolkig
Fr, 24.01. 19:00 1.7° C leicht bewölkt
Fr, 24.01. 13:00 5.7° C wolkenlos
Fr, 24.01. 7:00 -3.1° C wolkenlos
Ortszeit Temperatur Wetter
So, 26.01. 1:30 2.1° C bedeckt
So, 26.01. 1:20 2.1° C bedeckt
So, 26.01. 1:10 2.1° C bedeckt
So, 26.01. 1:00 2.3° C bedeckt
So, 26.01. 0:40 2.0° C bedeckt
So, 26.01. 0:30 2.7° C bedeckt
So, 26.01. 0:00 2.8° C bedeckt
Sa, 25.01. 23:30 3.2° C wolkig
Sa, 25.01. 23:00 3.9° C bewölkt
Sa, 25.01. 22:30 3.5° C bedeckt
Ortszeit Relative Feuchte Sichtweite
So, 26.01. 1:00 90% 19 km
Sa, 25.01. 19:00 84% 23 km
Sa, 25.01. 13:00 65% 30 km
Sa, 25.01. 7:00 93% 30 km
Sa, 25.01. 1:00 94% 23 km
Fr, 24.01. 19:00 82% 19 km
Fr, 24.01. 13:00 55% 28 km
Fr, 24.01. 7:00 91% 7 km
Ortszeit Relative Feuchte Sichtweite
So, 26.01. 1:30 90% 19 km
So, 26.01. 1:20 90% -
So, 26.01. 1:10 89% -
So, 26.01. 1:00 90% 19 km
So, 26.01. 0:40 90% -
So, 26.01. 0:30 91% 20 km
So, 26.01. 0:00 89% 21 km
Sa, 25.01. 23:30 88% 22 km
Sa, 25.01. 23:00 85% 20 km
Sa, 25.01. 22:30 87% 18 km
Ortszeit Niederschlagsmenge Niederschlagsart
So, 26.01. 1:00 0.0 l/m2 in 6 Std. -
Sa, 25.01. 19:00 0.0 l/m2 in 12 Std. -
Sa, 25.01. 13:00 0.0 l/m2 in 6 Std. -
Sa, 25.01. 7:00 0.0 l/m2 in 12 Std. -
Sa, 25.01. 1:00 0.0 l/m2 in 6 Std. -
Fr, 24.01. 19:00 0.0 l/m2 in 12 Std. -
Fr, 24.01. 13:00 0.0 l/m2 in 6 Std. -
Fr, 24.01. 7:00 0.0 l/m2 in 12 Std. -
Ortszeit Niederschlagsmenge Niederschlagsart
So, 26.01. 1:30 0.0 l/m2 in 1 Std. -
So, 26.01. 1:20 keine Meldung -
So, 26.01. 1:10 keine Meldung -
So, 26.01. 1:00 0.0 l/m2 in 1 Std. -
So, 26.01. 0:40 keine Meldung -
So, 26.01. 0:30 0.0 l/m2 in 1 Std. -
So, 26.01. 0:00 0.0 l/m2 in 1 Std. -
Sa, 25.01. 23:30 0.0 l/m2 in 1 Std. -
Sa, 25.01. 23:00 0.0 l/m2 in 1 Std. -
Sa, 25.01. 22:30 0.0 l/m2 in 1 Std. -
Ortszeit Stärke Spitze Richtung
km/h Bft. km/h Grad Sektor
So, 26.01. 1:00 4 1 11 290° W
Sa, 25.01. 19:00 4 1 14 90° O
Sa, 25.01. 13:00 7 2 11 270° W
Sa, 25.01. 7:00 7 2 11 210° SW
Sa, 25.01. 1:00 4 1 7 230° SW
Fr, 24.01. 19:00 6 1 11 150° SO
Fr, 24.01. 13:00 7 2 11 300° NW
Fr, 24.01. 7:00 4 1 18 230° SW
Ortszeit Stärke Spitze Richtung
km/h Bft. km/h Grad Sektor
So, 26.01. 1:30 4 1 7 30° NO
So, 26.01. 1:20 4 1 - 30° NO
So, 26.01. 1:10 4 1 - 70° O
So, 26.01. 1:00 4 1 7 290° W
So, 26.01. 0:40 4 1 - 360° N
So, 26.01. 0:30 4 1 7 260° W
So, 26.01. 0:00 6 1 7 270° W
Sa, 25.01. 23:30 4 1 7 120° SO
Sa, 25.01. 23:00 4 1 11 130° SO
Sa, 25.01. 22:30 4 1 7 280° W
Ortszeit Untergrenze Bedeckung Gattung
total tief tief mittel hoch
So, 26.01. 1:00 2700 m 8/8 8/8 - - -
Sa, 25.01. 19:00 2700 m 8/8 8/8 - - -
Sa, 25.01. 13:00 2700 m 8/8 8/8 - - -
Sa, 25.01. 7:00 3300 m 6/8 6/8 - - -
Sa, 25.01. 1:00 7800 m 7/8 0/8 - - -
Fr, 24.01. 19:00 8100 m 3/8 0/8 - - -
Fr, 24.01. 13:00 - 0/8 0/8 - - -
Fr, 24.01. 7:00 - 0/8 0/8 - - -
Ortszeit Bedeckungsgrad in Achtel und Wolkenuntergrenze
So, 26.01. 1:30 8(2700m)
So, 26.01. 1:20 8(2700m)
So, 26.01. 1:10 8(2700m) 8(3000m)
So, 26.01. 1:00 8(2700m) 8(3900m) 8(5100m)
So, 26.01. 0:40 8(2700m) 8(3900m) 8(5100m)
So, 26.01. 0:30 7(3000m) 8(3900m) 8(6600m)
So, 26.01. 0:00 7(3600m) 8(4500m) 8(6900m)
Sa, 25.01. 23:30 3(2400m) 8(3300m) 8(4800m)
Sa, 25.01. 23:00 7(2100m) 4(2100m) 7(2400m)
Sa, 25.01. 22:30 8(2400m) 8(2400m)
Ortszeit Luftdruck NN (hPa) Tendenz (hPa in 3 Std.)
So, 26.01. 1:00 1022 - 0,6
Sa, 25.01. 19:00 1023 0,0
Sa, 25.01. 13:00 1023 - 0,7
Sa, 25.01. 7:00 1024 + 0,3
Sa, 25.01. 1:00 1024 - 1,1
Fr, 24.01. 19:00 1025 + 0,1
Fr, 24.01. 13:00 1025 - 0,9
Fr, 24.01. 7:00 1028 - 0,4
Ortszeit Luftdruck NN (hPa) Tendenz (hPa in 3 Std.)
So, 26.01. 1:30 1022 - 0,5
So, 26.01. 1:20 1022 keine Meldung
So, 26.01. 1:10 1022 keine Meldung
So, 26.01. 1:00 1022 - 0,6
So, 26.01. 0:40 1022 keine Meldung
So, 26.01. 0:30 1022 - 0,4
So, 26.01. 0:00 1022 - 0,5
Sa, 25.01. 23:30 1022 - 0,5
Sa, 25.01. 23:00 1022 - 0,5
Sa, 25.01. 22:30 1022 - 0,4
Ortszeit Schneehöhe (cm)
So, 26.01. 1:00 0
Sa, 25.01. 19:00 0
Sa, 25.01. 13:00 0
Sa, 25.01. 7:00 0
Sa, 25.01. 1:00 0
Fr, 24.01. 19:00 0
Fr, 24.01. 13:00 0
Fr, 24.01. 7:00 0
Ortszeit Schneehöhe (cm)
So, 26.01. 1:30 0
So, 26.01. 1:20 0
So, 26.01. 1:10 0
So, 26.01. 1:00 0
So, 26.01. 0:40 0
So, 26.01. 0:30 0
So, 26.01. 0:00 0
Sa, 25.01. 23:30 0
Sa, 25.01. 23:00 0
Sa, 25.01. 22:30 0
Link zu dieser Seite / Seite empfehlen

Das Wetter in ...